Time;durP1;ratioP1;P1;durP2;ratioP2;P2;SDS_P1;SDS_P2;PMS_P1;PMS_P2;Temp;Humidity;BMP_temperature;BMP_pressure;BME280_temperature;BME280_humidity;BME280_pressure;Samples;Min_cycle;Max_cycle;Signal;HPM_P1;HPM_P2
2022/08/15 01:14:57;;;;;;;;;6.00;5.67;;;;;24.41;61.20;97666.53;5377565;23;103298;-96
2022/08/15 01:17:25;;;;;;;;;7.67;6.00;;;;;24.38;61.04;97653.34;4794554;29;104146;-96
2022/08/15 01:20:13;;;;;;;;;6.00;5.00;;;;;24.38;60.85;97665.22;4804729;29;102663;-96
2022/08/15 01:22:50;;;;;;;;;5.00;5.00;;;;;24.38;60.81;97662.47;4784071;29;102210;-95
2022/08/15 01:25:23;;;;;;;;;5.00;5.00;;;;;24.37;61.20;97652.53;4797370;29;102266;-95
2022/08/15 01:28:16;;;;;;;;;5.00;5.00;;;;;24.39;61.19;97655.81;4768533;29;110088;-95
2022/08/15 01:30:56;;;;;;;;;6.00;6.00;;;;;24.39;60.85;97668.81;4797739;29;102728;-95
2022/08/15 01:33:31;;;;;;;;;5.00;5.00;;;;;24.38;60.75;97661.63;4815246;29;102790;-95
2022/08/15 01:35:59;;;;;;;;;5.67;5.00;;;;;24.38;61.29;97650.59;4778017;29;102254;-96
2022/08/15 01:38:33;;;;;;;;;5.00;5.00;;;;;24.36;60.99;97661.94;4802563;29;108930;-95
2022/08/15 01:41:20;;;;;;;;;5.00;5.00;;;;;24.39;61.30;97666.03;4798098;29;102491;-95
2022/08/15 01:44:10;;;;;;;;;5.00;5.00;;;;;24.40;61.16;97667.69;4790245;29;103657;-95
2022/08/15 01:47:15;;;;;;;;;4.67;4.00;;;;;24.40;60.99;97673.22;4781550;29;102399;-95
2022/08/15 01:49:52;;;;;;;;;5.00;4.33;;;;;24.40;61.00;97667.69;4796587;29;109006;-96
2022/08/15 01:52:32;;;;;;;;;5.00;4.33;;;;;24.39;61.11;97672.38;4796346;29;103813;-96
2022/08/15 01:55:26;;;;;;;;;5.00;5.00;;;;;24.36;61.38;97675.75;4743468;29;102519;-95
2022/08/15 01:58:00;;;;;;;;;4.00;4.00;;;;;24.39;61.23;97677.09;4773305;29;102419;-95
2022/08/15 02:00:29;;;;;;;;;5.67;4.33;;;;;24.39;60.85;97666.03;4793852;29;109015;-95
2022/08/15 02:02:59;;;;;;;;;6.00;5.00;;;;;24.39;61.06;97666.03;4785004;29;102389;-95
2022/08/15 02:05:28;;;;;;;;;4.33;4.33;;;;;24.39;60.79;97660.50;4794815;29;103855;-95
2022/08/15 02:07:57;;;;;;;;;5.33;5.00;;;;;24.35;60.87;97646.53;4781086;29;102816;-94
2022/08/15 02:10:44;;;;;;;;;6.00;5.33;;;;;24.35;61.06;97653.97;4790559;29;110425;-95
2022/08/15 02:13:15;;;;;;;;;5.67;5.67;;;;;24.35;60.63;97643.75;4774949;29;103279;-95
2022/08/15 02:15:51;;;;;;;;;5.67;5.33;;;;;24.37;60.47;97640.66;4766647;29;102183;-95
2022/08/15 02:18:18;;;;;;;;;7.00;7.00;;;;;24.32;60.56;97627.78;4791544;29;102198;-95
2022/08/15 02:20:46;;;;;;;;;6.00;6.00;;;;;24.34;60.39;97633.00;4795149;29;104375;-95
2022/08/15 02:23:17;;;;;;;;;5.67;4.33;;;;;24.33;60.47;97636.88;4771108;29;102417;-95
2022/08/15 02:25:47;;;;;;;;;5.00;5.00;;;;;24.32;60.74;97629.72;4789781;29;102260;-94
2022/08/15 02:28:15;;;;;;;;;4.33;3.67;;;;;24.34;60.39;97636.59;4808022;29;102300;-94
2022/08/15 02:31:07;;;;;;;;;5.67;4.00;;;;;24.35;60.54;97632.69;4793175;29;108411;-94
2022/08/15 02:33:37;;;;;;;;;6.00;6.00;;;;;24.32;60.32;97632.50;4786445;29;102481;-94
2022/08/15 02:36:04;;;;;;;;;6.33;6.00;;;;;24.34;60.26;97621.94;4796427;29;102240;-94
2022/08/15 02:38:38;;;;;;;;;5.00;5.00;;;;;24.32;60.27;97626.97;4797097;29;102498;-94
2022/08/15 02:41:15;;;;;;;;;6.00;5.67;;;;;24.32;60.19;97629.72;4789263;29;104016;-94
2022/08/15 02:43:43;;;;;;;;;5.00;5.00;;;;;24.30;60.76;97626.47;4794528;29;105065;-94
2022/08/15 02:46:10;;;;;;;;;6.00;6.00;;;;;24.32;60.11;97625.00;4776074;29;102541;-94
2022/08/15 02:48:58;;;;;;;;;6.00;6.00;;;;;24.33;60.07;97623.91;4795119;29;102640;-94
2022/08/15 02:51:26;;;;;;;;;6.00;6.00;;;;;24.33;60.23;97625.84;4780067;29;104105;-94
2022/08/15 02:53:57;;;;;;;;;8.00;5.00;;;;;24.31;60.11;97608.78;4788937;29;102381;-94
2022/08/15 02:56:26;;;;;;;;;5.00;5.00;;;;;24.29;60.26;97606.31;4793565;29;102215;-96
2022/08/15 02:58:57;;;;;;;;;6.33;5.33;;;;;24.29;59.99;97606.31;4794809;29;102794;-96
2022/08/15 03:01:26;;;;;;;;;4.33;4.33;;;;;24.26;60.14;97606.94;4794148;29;104076;-96
2022/08/15 03:04:13;;;;;;;;;6.67;6.00;;;;;24.25;60.24;97610.00;4795898;29;102860;-96
2022/08/15 03:06:56;;;;;;;;;6.67;5.00;;;;;24.27;60.28;97607.78;4785722;29;102287;-96
2022/08/15 03:09:24;;;;;;;;;5.00;5.00;;;;;24.24;60.03;97602.84;4796347;29;104086;-96
2022/08/15 03:12:03;;;;;;;;;6.00;5.33;;;;;24.28;60.25;97603.84;4773317;29;108897;-96
2022/08/15 03:14:52;;;;;;;;;4.00;3.33;;;;;24.28;59.90;97606.63;4791517;29;102133;-96
2022/08/15 03:17:20;;;;;;;;;4.67;4.00;;;;;24.28;60.27;97599.16;4795389;29;102301;-96
2022/08/15 03:19:48;;;;;;;;;4.00;4.00;;;;;24.27;60.14;97597.50;4781493;29;102717;-96
2022/08/15 03:22:18;;;;;;;;;5.00;5.00;;;;;24.25;60.22;97593.44;4794636;29;104246;-96
2022/08/15 03:25:06;;;;;;;;;6.00;5.67;;;;;24.28;60.19;97587.28;4771726;29;102168;-96
2022/08/15 03:27:34;;;;;;;;;5.67;5.33;;;;;24.27;60.26;97583.69;4786244;29;102012;-96
2022/08/15 03:30:02;;;;;;;;;5.00;4.00;;;;;24.22;60.09;97572.78;4777015;29;102564;-96
2022/08/15 03:32:30;;;;;;;;;4.00;4.00;;;;;24.29;60.18;97591.69;4771194;29;108081;-96
2022/08/15 03:35:03;;;;;;;;;5.00;5.00;;;;;24.29;60.14;97583.38;4793085;29;102106;-96
2022/08/15 03:37:36;;;;;;;;;5.33;5.00;;;;;24.25;60.44;97574.91;4791098;29;102466;-96
2022/08/15 03:40:23;;;;;;;;;6.00;6.00;;;;;24.27;60.24;97575.41;4772077;29;102738;-96
2022/08/15 03:43:20;;;;;;;;;5.67;4.67;;;;;24.29;60.11;97584.22;4755737;29;104366;-96
2022/08/15 03:45:52;;;;;;;;;5.00;4.00;;;;;24.27;60.14;97580.13;4767894;29;102804;-96
2022/08/15 03:48:20;;;;;;;;;5.33;5.33;;;;;24.31;60.16;97594.97;4782388;29;102425;-96
2022/08/15 03:50:52;;;;;;;;;5.00;4.00;;;;;24.31;60.27;97598.53;4779257;29;102266;-96
2022/08/15 03:53:23;;;;;;;;;5.00;5.00;;;;;24.28;60.58;97593.63;4798866;29;103198;-96
2022/08/15 03:55:54;;;;;;;;;6.67;6.67;;;;;24.30;60.39;97596.91;4781995;29;102135;-96
2022/08/15 03:58:25;;;;;;;;;5.00;5.00;;;;;24.24;60.46;97586.28;4804004;29;102175;-96
2022/08/15 04:01:01;;;;;;;;;6.33;5.00;;;;;24.29;60.32;97597.19;4774702;29;102275;-96
2022/08/15 04:03:29;;;;;;;;;5.67;4.00;;;;;24.28;60.24;97607.44;4767851;29;110436;-96
2022/08/15 04:06:00;;;;;;;;;6.00;5.00;;;;;24.29;60.23;97611.84;4801424;29;102099;-96
2022/08/15 04:08:33;;;;;;;;;3.00;3.00;;;;;24.28;60.14;97606.63;4782178;29;103929;-95
2022/08/15 04:11:25;;;;;;;;;5.33;5.00;;;;;24.26;60.04;97598.66;4769887;29;103178;-96
2022/08/15 04:14:06;;;;;;;;;6.33;6.00;;;;;24.25;60.04;97605.31;4780458;29;109251;-96
2022/08/15 04:16:57;;;;;;;;;4.00;4.00;;;;;24.24;60.15;97602.84;4787141;29;102772;-96
2022/08/15 04:19:31;;;;;;;;;4.33;4.00;;;;;24.26;60.12;97606.94;4799581;29;102374;-96
2022/08/15 04:22:18;;;;;;;;;5.33;4.67;;;;;24.25;60.07;97605.31;4800255;29;102485;-96
2022/08/15 04:25:29;;;;;;;;;4.00;4.00;;;;;24.23;60.01;97604.78;4797294;29;109264;-96
2022/08/15 04:28:09;;;;;;;;;4.00;4.00;;;;;24.22;59.97;97594.91;4795475;29;102381;-96
2022/08/15 04:30:58;;;;;;;;;5.67;4.33;;;;;24.22;60.23;97594.06;4797528;29;104137;-96
2022/08/15 04:33:28;;;;;;;;;4.00;4.00;;;;;24.20;59.99;97597.16;4801805;29;102596;-96
2022/08/15 04:36:16;;;;;;;;;4.00;4.00;;;;;24.21;60.31;97592.44;4797365;29;109994;-96
2022/08/15 04:38:45;;;;;;;;;5.00;5.00;;;;;24.21;60.30;97597.97;4803562;29;103082;-96
2022/08/15 04:41:16;;;;;;;;;4.67;3.67;;;;;24.19;60.02;97606.56;4801625;29;102648;-94
2022/08/15 04:44:02;;;;;;;;;4.00;4.00;;;;;24.19;60.15;97606.56;4797929;29;102834;-96
2022/08/15 04:46:29;;;;;;;;;4.67;4.00;;;;;24.19;60.11;97611.25;4801398;29;109180;-96
2022/08/15 04:48:56;;;;;;;;;4.00;4.00;;;;;24.17;59.83;97613.53;4798841;29;102175;-96
2022/08/15 04:51:26;;;;;;;;;3.67;3.67;;;;;24.17;59.93;97613.53;4807099;29;102331;-96
2022/08/15 04:54:02;;;;;;;;;4.67;4.00;;;;;24.17;60.18;97613.53;4802823;29;102392;-94
2022/08/15 04:56:29;;;;;;;;;4.00;4.00;;;;;24.20;59.74;97621.19;4794039;29;109439;-95
2022/08/15 04:59:19;;;;;;;;;5.00;4.00;;;;;24.22;59.86;97614.25;4780309;29;102539;-94
2022/08/15 05:02:05;;;;;;;;;4.67;3.67;;;;;24.22;59.84;97610.66;4797834;29;102167;-94
2022/08/15 05:05:02;;;;;;;;;5.00;4.67;;;;;24.17;60.00;97602.47;4772915;29;105383;-95
2022/08/15 05:07:37;;;;;;;;;5.00;5.00;;;;;24.17;59.89;97611.59;4700428;29;110797;-96
2022/08/15 05:10:25;;;;;;;;;5.67;5.67;;;;;24.21;60.11;97609.00;4801329;29;102279;-95
2022/08/15 05:13:10;;;;;;;;;4.00;4.00;;;;;24.22;60.31;97613.41;4785967;29;102617;-95
2022/08/15 05:15:38;;;;;;;;;4.33;4.00;;;;;24.20;60.14;97612.91;4794991;29;102633;-95
2022/08/15 05:18:21;;;;;;;;;3.33;3.33;;;;;24.24;60.25;97619.44;4797211;29;104547;-95
2022/08/15 05:20:49;;;;;;;;;5.00;4.00;;;;;24.21;60.23;97618.13;4797242;29;102410;-95
2022/08/15 05:23:18;;;;;;;;;3.33;3.33;;;;;24.24;60.33;97619.44;4796954;29;109942;-95
2022/08/15 05:26:01;;;;;;;;;4.67;4.67;;;;;24.19;60.66;97614.03;4804608;29;102409;-96
2022/08/15 05:28:29;;;;;;;;;4.00;4.00;;;;;24.20;60.92;97605.44;4791334;29;106793;-96
2022/08/15 05:30:58;;;;;;;;;4.00;4.00;;;;;24.17;60.32;97611.59;4799173;29;102153;-96
2022/08/15 05:33:42;;;;;;;;;4.00;4.00;;;;;24.19;60.53;97611.25;4784838;29;102391;-96
2022/08/15 05:36:24;;;;;;;;;7.00;4.00;;;;;24.19;60.81;97608.50;4781047;29;102424;-96
2022/08/15 05:38:58;;;;;;;;;6.33;5.00;;;;;24.26;60.72;97608.91;4788972;29;103131;-96
2022/08/15 05:41:32;;;;;;;;;4.67;4.33;;;;;24.26;60.58;97609.72;4790718;29;102291;-96
2022/08/15 05:44:28;;;;;;;;;4.00;4.00;;;;;24.19;60.58;97594.69;4808888;29;102129;-96
2022/08/15 05:47:19;;;;;;;;;5.00;5.00;;;;;24.26;60.70;97609.72;4781255;29;102223;-96
2022/08/15 05:49:56;;;;;;;;;3.67;3.67;;;;;24.23;60.73;97610.31;4809891;29;109554;-96
2022/08/15 05:53:07;;;;;;;;;5.33;5.00;;;;;24.25;60.59;97612.78;4801964;29;102152;-96
2022/08/15 05:55:45;;;;;;;;;4.33;4.33;;;;;24.19;60.69;97598.28;4801020;29;101731;-96
2022/08/15 05:58:34;;;;;;;;;4.67;4.00;;;;;24.23;60.96;97610.31;4794057;29;102133;-96
2022/08/15 06:01:24;;;;;;;;;3.67;3.67;;;;;24.26;60.60;97619.94;4804807;29;107955;-96
2022/08/15 06:04:02;;;;;;;;;5.67;5.67;;;;;24.24;60.70;97613.91;4823004;29;104184;-96
2022/08/15 06:06:32;;;;;;;;;4.00;4.00;;;;;24.26;60.80;97617.19;4795296;29;102538;-96
2022/08/15 06:09:35;;;;;;;;;6.33;6.33;;;;;24.25;60.69;97627.41;4770817;29;102119;-96
2022/08/15 06:12:41;;;;;;;;;4.67;4.67;;;;;24.22;60.83;97610.66;4812848;29;107969;-96
2022/08/15 06:15:19;;;;;;;;;4.00;4.00;;;;;24.18;60.92;97615.97;4781779;29;101903;-96
2022/08/15 06:17:55;;;;;;;;;3.67;3.33;;;;;24.19;60.53;97616.78;4818884;29;102058;-96
2022/08/15 06:20:56;;;;;;;;;4.67;4.00;;;;;24.20;60.72;97630.28;4796788;29;102754;-96
2022/08/15 06:23:54;;;;;;;;;4.33;4.33;;;;;24.19;60.49;97627.84;4796309;29;108092;-96
2022/08/15 06:26:36;;;;;;;;;4.00;3.67;;;;;24.24;60.67;97627.72;4813814;29;102100;-96
2022/08/15 06:29:30;;;;;;;;;5.67;5.00;;;;;24.24;60.62;97631.28;4796671;29;102382;-96
2022/08/15 06:32:09;;;;;;;;;4.33;4.33;;;;;24.22;60.61;97639.09;4806358;29;101918;-96
2022/08/15 06:35:05;;;;;;;;;4.00;3.67;;;;;24.23;60.48;97635.19;4790869;29;110167;-96
2022/08/15 06:38:01;;;;;;;;;3.00;3.00;;;;;24.20;60.69;97635.00;4803420;29;102175;-96
2022/08/15 06:41:02;;;;;;;;;7.00;4.67;;;;;24.21;60.23;97631.94;4804571;29;102655;-96
2022/08/15 06:43:29;;;;;;;;;3.00;2.67;;;;;24.15;60.74;97615.75;4805967;29;102590;-96
2022/08/15 06:45:57;;;;;;;;;4.00;4.00;;;;;24.17;60.69;97630.09;4787899;29;103101;-96
2022/08/15 06:48:26;;;;;;;;;3.67;3.67;;;;;24.21;60.62;97636.63;4781611;29;102205;-96
2022/08/15 06:51:14;;;;;;;;;5.67;4.67;;;;;24.22;60.31;97632.75;4811470;29;102193;-96
2022/08/15 06:53:54;;;;;;;;;3.67;3.67;;;;;24.17;60.52;97630.09;4818508;29;102191;-96
2022/08/15 06:57:09;;;;;;;;;4.00;4.00;;;;;24.17;60.23;97630.09;4801715;29;103227;-96
2022/08/15 06:59:54;;;;;;;;;4.67;4.67;;;;;24.13;60.06;97624.38;4739886;29;102021;-96
2022/08/15 07:02:53;;;;;;;;;4.00;4.00;;;;;24.24;59.86;97649.81;4729475;29;101699;-96
2022/08/15 07:06:02;;;;;;;;;3.67;3.00;;;;;24.15;60.21;97624.84;4788375;29;102211;-96
2022/08/15 07:08:37;;;;;;;;;4.33;4.33;;;;;24.27;59.90;97647.25;4722135;29;108040;-96
2022/08/15 07:11:37;;;;;;;;;3.33;3.33;;;;;24.26;59.90;97633.75;4734517;29;102756;-96
2022/08/15 07:14:52;;;;;;;;;4.00;3.00;;;;;24.21;59.80;97633.88;4777601;29;102524;-96
2022/08/15 07:17:33;;;;;;;;;3.33;3.33;;;;;24.22;59.67;97632.75;4810417;29;102096;-96
2022/08/15 07:20:00;;;;;;;;;5.67;5.00;;;;;24.29;59.48;97646.94;4794530;29;106860;-96
2022/08/15 07:22:47;;;;;;;;;4.00;4.00;;;;;24.26;59.58;97642.03;4812240;29;102153;-96
2022/08/15 07:25:19;;;;;;;;;4.00;3.33;;;;;24.21;59.43;97626.41;4806517;29;103315;-96
2022/08/15 07:28:06;;;;;;;;;4.00;3.00;;;;;24.32;59.53;97640.78;4799108;29;102114;-96
2022/08/15 07:31:00;;;;;;;;;2.33;2.33;;;;;24.33;59.33;97639.66;4776865;29;106087;-96
2022/08/15 07:41:43;;;;;;;;;3.00;3.00;;;;;24.33;59.16;97634.94;4459776;27;102959;-96
2022/08/15 07:44:30;;;;;;;;;4.00;4.00;;;;;24.35;58.87;97631.88;4711054;29;102662;-96
2022/08/15 07:47:06;;;;;;;;;5.00;4.00;;;;;24.29;59.19;97631.19;4745578;29;103768;-96
2022/08/15 07:49:34;;;;;;;;;3.00;3.00;;;;;24.36;59.21;97634.31;4750928;29;102317;-96
2022/08/15 07:52:06;;;;;;;;;5.00;5.00;;;;;24.40;59.20;97640.06;4731062;29;109589;-96
2022/08/15 07:54:53;;;;;;;;;5.00;4.67;;;;;24.40;59.17;97634.53;4747592;29;103035;-94
2022/08/15 07:57:28;;;;;;;;;4.00;3.67;;;;;24.35;58.88;97631.88;4731343;29;102440;-96
2022/08/15 08:00:26;;;;;;;;;5.67;4.00;;;;;24.43;58.88;97640.22;4749887;29;102330;-96
2022/08/15 08:03:25;;;;;;;;;5.00;4.00;;;;;24.44;58.46;97639.09;4734157;29;110167;-96
2022/08/15 08:06:11;;;;;;;;;4.00;4.00;;;;;24.43;59.16;97637.47;4751059;29;103423;-96
2022/08/15 08:09:15;;;;;;;;;6.00;5.00;;;;;24.39;58.83;97628.19;4762733;29;102147;-96
2022/08/15 08:11:45;;;;;;;;;3.67;3.67;;;;;24.48;58.93;97649.53;4733162;29;104042;-96
2022/08/15 08:14:25;;;;;;;;;4.67;4.33;;;;;24.49;58.72;97651.16;4764490;29;104117;-96
2022/08/15 08:17:25;;;;;;;;;5.00;4.67;;;;;24.50;58.78;97650.84;4731481;29;102571;-96
2022/08/15 08:20:20;;;;;;;;;5.33;5.00;;;;;24.50;58.75;97653.59;4747869;29;103867;-96
2022/08/15 08:22:57;;;;;;;;;5.00;5.00;;;;;24.50;58.75;97647.25;4715830;29;102565;-96
2022/08/15 08:31:20;;;;;;;;;6.33;6.33;;;;;24.51;58.72;97641.41;4721230;28;102108;-96
2022/08/15 08:34:05;;;;;;;;;8.00;7.00;;;;;24.51;58.60;97652.47;4597692;29;102597;-96
2022/08/15 08:37:14;;;;;;;;;7.67;7.33;;;;;24.44;58.63;97636.34;4585974;29;110780;-96
2022/08/15 08:44:27;;;;;;;;;9.67;9.00;;;;;24.57;58.53;97656.75;4531364;29;104373;-96
2022/08/15 08:47:45;;;;;;;;;12.00;11.00;;;;;24.56;58.70;97654.28;4524236;29;104420;-96
2022/08/15 08:51:06;;;;;;;;;11.33;10.00;;;;;24.56;58.53;97655.13;4496323;29;108128;-96
2022/08/15 08:54:43;;;;;;;;;13.67;12.00;;;;;24.55;59.02;97647.94;4527713;29;103649;-96
2022/08/15 08:57:28;;;;;;;;;13.67;13.33;;;;;24.58;58.86;97641.81;4553336;29;102801;-96
2022/08/15 09:00:18;;;;;;;;;14.00;14.00;;;;;24.56;58.72;97649.59;4775962;29;103815;-96
2022/08/15 09:02:59;;;;;;;;;13.67;13.33;;;;;24.55;58.90;97641.59;4765625;29;108983;-96
2022/08/15 09:05:40;;;;;;;;;14.00;12.33;;;;;24.50;58.62;97638.94;4750991;29;102508;-96
2022/08/15 09:08:51;;;;;;;;;15.00;13.33;;;;;24.59;58.75;97643.41;4776803;29;102937;-96
2022/08/15 09:11:26;;;;;;;;;12.67;11.67;;;;;24.60;59.14;97645.06;4785344;29;103946;-96
2022/08/15 09:13:58;;;;;;;;;13.33;12.00;;;;;24.59;59.01;97631.53;4770798;29;104080;-96
2022/08/15 09:16:36;;;;;;;;;11.33;8.33;;;;;24.54;58.82;97628.94;4787131;29;102388;-96
2022/08/15 09:19:15;;;;;;;;;13.00;11.00;;;;;24.58;59.39;97641.81;4775116;29;102310;-96
2022/08/15 09:21:51;;;;;;;;;13.00;12.33;;;;;24.54;59.07;97626.97;4628397;29;103733;-96
2022/08/15 09:24:38;;;;;;;;;12.67;11.33;;;;;24.55;58.84;97636.88;4605377;29;109624;-96
2022/08/15 09:27:50;;;;;;;;;14.00;13.00;;;;;24.63;58.80;97649.16;4608626;29;102610;-96
2022/08/15 09:30:51;;;;;;;;;10.67;10.33;;;;;24.55;58.80;97630.53;4554232;29;102361;-96
2022/08/15 09:34:16;;;;;;;;;17.33;13.67;;;;;24.57;59.27;97640.16;4604324;29;103052;-96
2022/08/15 09:37:26;;;;;;;;;11.67;11.67;;;;;24.59;58.76;97634.31;4615071;29;107587;-96
2022/08/15 09:40:32;;;;;;;;;14.33;13.00;;;;;24.61;58.89;97635.63;4578882;29;103017;-96
2022/08/15 09:43:47;;;;;;;;;14.33;13.00;;;;;24.63;58.59;97640.88;4626639;29;107414;-93
2022/08/15 09:46:26;;;;;;;;;13.00;12.33;;;;;24.61;58.91;97632.88;4691024;29;102296;-96
2022/08/15 09:49:32;;;;;;;;;14.00;12.67;;;;;24.64;59.12;97623.94;4715213;29;110019;-96
2022/08/15 09:52:26;;;;;;;;;16.67;16.00;;;;;24.58;59.09;97610.59;4731954;29;102770;-96
2022/08/15 09:55:19;;;;;;;;;12.00;11.33;;;;;24.68;58.91;97633.22;4730431;29;102292;-96
2022/08/15 09:57:51;;;;;;;;;13.33;13.33;;;;;24.70;59.69;97616.34;4745329;29;102563;-96
2022/08/15 10:01:03;;;;;;;;;13.00;13.00;;;;;24.72;59.63;97617.63;4692317;29;102983;-96
2022/08/15 10:03:44;;;;;;;;;17.00;15.00;;;;;24.75;60.34;97617.03;4732380;29;102522;-96
2022/08/15 10:06:42;;;;;;;;;18.33;14.00;;;;;24.77;60.95;97620.28;4730189;29;102176;-96
2022/08/15 10:09:12;;;;;;;;;14.67;13.00;;;;;24.80;60.63;97610.53;4748992;29;102587;-96
2022/08/15 10:11:41;;;;;;;;;12.67;10.67;;;;;24.82;61.28;97600.78;4779099;29;104103;-96
2022/08/15 10:14:49;;;;;;;;;13.33;12.33;;;;;24.85;61.24;97602.13;4779633;29;102672;-96
2022/08/15 10:17:40;;;;;;;;;14.33;14.00;;;;;24.85;61.59;97602.94;4782311;29;102150;-95
2022/08/15 10:20:26;;;;;;;;;13.00;11.67;;;;;24.91;61.24;97608.34;4766344;29;102523;-96
2022/08/15 10:22:57;;;;;;;;;9.33;9.00;;;;;24.87;61.47;97595.16;4774232;29;104081;-96
2022/08/15 10:25:28;;;;;;;;;11.00;11.00;;;;;24.94;61.16;97596.66;4763897;29;104397;-96
2022/08/15 10:28:08;;;;;;;;;10.67;10.67;;;;;24.86;61.04;97582.44;4759469;29;102732;-96
2022/08/15 10:31:03;;;;;;;;;10.67;10.67;;;;;24.98;60.94;97592.94;4768643;29;102640;-96
2022/08/15 10:53:04;;;;;;;;;11.00;10.33;;;;;25.17;60.38;97592.69;4503590;27;104430;-96
